sensor_id;sensor_type;location;lat;lon;timestamp;temperature;humidity
78184;DHT22;67442;44.570;18.610;2024-01-11T00:00:22;-8.20;99.90
78184;DHT22;67442;44.570;18.610;2024-01-11T00:02:54;-8.00;99.90
78184;DHT22;67442;44.570;18.610;2024-01-11T00:05:25;-8.10;99.90
78184;DHT22;67442;44.570;18.610;2024-01-11T00:07:52;-8.10;99.90
78184;DHT22;67442;44.570;18.610;2024-01-11T00:10:20;-8.10;99.90
78184;DHT22;67442;44.570;18.610;2024-01-11T00:12:49;-8.20;99.90
78184;DHT22;67442;44.570;18.610;2024-01-11T00:15:17;-8.20;99.90
78184;DHT22;67442;44.570;18.610;2024-01-11T00:17:45;-8.50;99.90
78184;DHT22;67442;44.570;18.610;2024-01-11T00:20:13;-8.50;99.90
78184;DHT22;67442;44.570;18.610;2024-01-11T00:22:40;-8.40;99.90
78184;DHT22;67442;44.570;18.610;2024-01-11T00:25:09;-8.70;99.90
78184;DHT22;67442;44.570;18.610;2024-01-11T00:27:37;-8.90;99.90
78184;DHT22;67442;44.570;18.610;2024-01-11T00:30:07;-8.90;99.90
78184;DHT22;67442;44.570;18.610;2024-01-11T00:32:34;-8.90;99.90
78184;DHT22;67442;44.570;18.610;2024-01-11T00:35:02;-8.60;99.90
78184;DHT22;67442;44.570;18.610;2024-01-11T00:37:31;-8.70;99.90
78184;DHT22;67442;44.570;18.610;2024-01-11T00:39:58;-8.70;99.90
78184;DHT22;67442;44.570;18.610;2024-01-11T00:42:33;-8.70;99.90
78184;DHT22;67442;44.570;18.610;2024-01-11T00:45:05;-8.70;99.90
78184;DHT22;67442;44.570;18.610;2024-01-11T00:47:33;-8.60;99.90
78184;DHT22;67442;44.570;18.610;2024-01-11T00:50:06;-8.40;99.90
78184;DHT22;67442;44.570;18.610;2024-01-11T00:52:38;-8.40;99.90
78184;DHT22;67442;44.570;18.610;2024-01-11T00:55:07;-8.40;99.90
78184;DHT22;67442;44.570;18.610;2024-01-11T00:57:36;-8.30;99.90
78184;DHT22;67442;44.570;18.610;2024-01-11T01:00:04;-8.30;99.90
78184;DHT22;67442;44.570;18.610;2024-01-11T01:02:33;-8.20;99.90
78184;DHT22;67442;44.570;18.610;2024-01-11T01:05:00;-8.50;99.90
78184;DHT22;67442;44.570;18.610;2024-01-11T01:07:29;-8.60;99.90
78184;DHT22;67442;44.570;18.610;2024-01-11T01:09:56;-8.80;99.90
78184;DHT22;67442;44.570;18.610;2024-01-11T01:12:24;-8.70;99.90
78184;DHT22;67442;44.570;18.610;2024-01-11T01:14:52;-8.40;99.90
78184;DHT22;67442;44.570;18.610;2024-01-11T01:17:22;-8.50;99.90
78184;DHT22;67442;44.570;18.610;2024-01-11T01:19:49;-8.30;99.90
78184;DHT22;67442;44.570;18.610;2024-01-11T01:22:17;-8.40;99.90
78184;DHT22;67442;44.570;18.610;2024-01-11T01:24:44;-8.60;99.90
78184;DHT22;67442;44.570;18.610;2024-01-11T01:27:12;-8.70;99.90
78184;DHT22;67442;44.570;18.610;2024-01-11T01:29:44;-8.50;99.90
78184;DHT22;67442;44.570;18.610;2024-01-11T01:32:11;-8.60;99.90
78184;DHT22;67442;44.570;18.610;2024-01-11T01:34:39;-8.40;99.90
78184;DHT22;67442;44.570;18.610;2024-01-11T01:37:07;-8.60;99.90
78184;DHT22;67442;44.570;18.610;2024-01-11T01:39:37;-8.70;99.90
78184;DHT22;67442;44.570;18.610;2024-01-11T01:42:05;-8.70;99.90
78184;DHT22;67442;44.570;18.610;2024-01-11T01:44:33;-9.00;99.90
78184;DHT22;67442;44.570;18.610;2024-01-11T01:47:01;-9.10;99.90
78184;DHT22;67442;44.570;18.610;2024-01-11T01:49:29;-9.30;99.90
78184;DHT22;67442;44.570;18.610;2024-01-11T01:52:00;-9.30;99.90
78184;DHT22;67442;44.570;18.610;2024-01-11T01:54:30;-9.30;99.90
78184;DHT22;67442;44.570;18.610;2024-01-11T01:57:03;-9.10;99.90
78184;DHT22;67442;44.570;18.610;2024-01-11T01:59:32;-8.80;99.90
78184;DHT22;67442;44.570;18.610;2024-01-11T02:01:59;-8.70;99.90
78184;DHT22;67442;44.570;18.610;2024-01-11T02:04:30;-8.50;99.90
78184;DHT22;67442;44.570;18.610;2024-01-11T02:07:02;-8.50;99.90
78184;DHT22;67442;44.570;18.610;2024-01-11T02:09:30;-8.50;99.90
78184;DHT22;67442;44.570;18.610;2024-01-11T02:11:59;-8.90;99.90
78184;DHT22;67442;44.570;18.610;2024-01-11T02:14:31;-8.80;99.90
78184;DHT22;67442;44.570;18.610;2024-01-11T02:17:03;-8.90;99.90
78184;DHT22;67442;44.570;18.610;2024-01-11T02:19:35;-8.90;99.90
78184;DHT22;67442;44.570;18.610;2024-01-11T02:22:15;-8.60;99.90
78184;DHT22;67442;44.570;18.610;2024-01-11T02:24:48;-8.60;99.90
78184;DHT22;67442;44.570;18.610;2024-01-11T02:27:18;-8.40;99.90
78184;DHT22;67442;44.570;18.610;2024-01-11T02:29:46;-8.30;99.90
78184;DHT22;67442;44.570;18.610;2024-01-11T02:32:13;-8.50;99.90
78184;DHT22;67442;44.570;18.610;2024-01-11T02:34:42;-8.70;99.90
78184;DHT22;67442;44.570;18.610;2024-01-11T02:37:09;-8.50;99.90
78184;DHT22;67442;44.570;18.610;2024-01-11T02:39:37;-8.30;99.90
78184;DHT22;67442;44.570;18.610;2024-01-11T02:42:05;-8.10;99.90
78184;DHT22;67442;44.570;18.610;2024-01-11T02:44:33;-8.00;99.90
78184;DHT22;67442;44.570;18.610;2024-01-11T02:47:00;-8.00;99.90
78184;DHT22;67442;44.570;18.610;2024-01-11T02:49:28;-8.30;99.90
78184;DHT22;67442;44.570;18.610;2024-01-11T02:51:57;-8.50;99.90
78184;DHT22;67442;44.570;18.610;2024-01-11T02:54:28;-8.60;99.90
78184;DHT22;67442;44.570;18.610;2024-01-11T02:56:55;-8.50;99.90
78184;DHT22;67442;44.570;18.610;2024-01-11T02:59:24;-8.40;99.90
78184;DHT22;67442;44.570;18.610;2024-01-11T03:01:52;-8.50;99.90
78184;DHT22;67442;44.570;18.610;2024-01-11T03:04:20;-8.20;99.90
78184;DHT22;67442;44.570;18.610;2024-01-11T03:06:47;-7.70;99.90
78184;DHT22;67442;44.570;18.610;2024-01-11T03:09:15;-7.50;99.90
78184;DHT22;67442;44.570;18.610;2024-01-11T03:11:43;-7.40;99.90
78184;DHT22;67442;44.570;18.610;2024-01-11T03:14:10;-7.00;99.90
78184;DHT22;67442;44.570;18.610;2024-01-11T03:16:42;-6.80;99.90
78184;DHT22;67442;44.570;18.610;2024-01-11T03:19:10;-6.90;99.90
78184;DHT22;67442;44.570;18.610;2024-01-11T03:21:43;-6.90;99.90
78184;DHT22;67442;44.570;18.610;2024-01-11T03:24:12;-7.20;99.90
78184;DHT22;67442;44.570;18.610;2024-01-11T03:26:38;-7.30;99.90
78184;DHT22;67442;44.570;18.610;2024-01-11T03:29:06;-7.10;99.90
78184;DHT22;67442;44.570;18.610;2024-01-11T03:31:34;-7.10;99.90
78184;DHT22;67442;44.570;18.610;2024-01-11T03:34:07;-7.10;99.90
78184;DHT22;67442;44.570;18.610;2024-01-11T03:36:34;-7.20;99.90
78184;DHT22;67442;44.570;18.610;2024-01-11T03:39:01;-7.20;99.90
78184;DHT22;67442;44.570;18.610;2024-01-11T03:41:32;-7.20;99.90
78184;DHT22;67442;44.570;18.610;2024-01-11T03:43:59;-7.20;99.90
78184;DHT22;67442;44.570;18.610;2024-01-11T03:46:27;-6.90;99.90
78184;DHT22;67442;44.570;18.610;2024-01-11T03:48:55;-7.00;99.90
78184;DHT22;67442;44.570;18.610;2024-01-11T03:51:23;-6.80;99.90
78184;DHT22;67442;44.570;18.610;2024-01-11T03:53:55;-6.50;99.90
78184;DHT22;67442;44.570;18.610;2024-01-11T03:56:22;-6.20;99.90
78184;DHT22;67442;44.570;18.610;2024-01-11T03:58:50;-6.10;99.90
78184;DHT22;67442;44.570;18.610;2024-01-11T04:01:17;-6.10;99.90
78184;DHT22;67442;44.570;18.610;2024-01-11T04:03:49;-6.30;99.90
78184;DHT22;67442;44.570;18.610;2024-01-11T04:06:21;-6.30;99.90
78184;DHT22;67442;44.570;18.610;2024-01-11T04:08:49;-6.10;99.90
78184;DHT22;67442;44.570;18.610;2024-01-11T04:11:17;-5.80;99.90
78184;DHT22;67442;44.570;18.610;2024-01-11T04:13:48;-5.70;99.90
78184;DHT22;67442;44.570;18.610;2024-01-11T04:16:16;-5.90;99.90
78184;DHT22;67442;44.570;18.610;2024-01-11T04:18:44;-5.90;99.90
78184;DHT22;67442;44.570;18.610;2024-01-11T04:21:22;-6.10;99.90
78184;DHT22;67442;44.570;18.610;2024-01-11T04:23:58;-6.20;99.90
78184;DHT22;67442;44.570;18.610;2024-01-11T04:26:24;-6.10;99.90
78184;DHT22;67442;44.570;18.610;2024-01-11T04:28:55;-5.90;99.90
78184;DHT22;67442;44.570;18.610;2024-01-11T04:31:28;-5.90;99.90
78184;DHT22;67442;44.570;18.610;2024-01-11T04:33:59;-6.00;99.90
78184;DHT22;67442;44.570;18.610;2024-01-11T04:36:30;-6.00;99.90
78184;DHT22;67442;44.570;18.610;2024-01-11T04:38:58;-5.90;99.90
78184;DHT22;67442;44.570;18.610;2024-01-11T04:41:26;-6.00;99.90
78184;DHT22;67442;44.570;18.610;2024-01-11T04:43:57;-6.00;99.90
78184;DHT22;67442;44.570;18.610;2024-01-11T04:46:28;-5.70;99.90
78184;DHT22;67442;44.570;18.610;2024-01-11T04:48:56;-5.70;99.90
78184;DHT22;67442;44.570;18.610;2024-01-11T04:51:24;-5.80;99.90
78184;DHT22;67442;44.570;18.610;2024-01-11T04:53:51;-5.40;99.90
78184;DHT22;67442;44.570;18.610;2024-01-11T04:56:23;-5.30;99.90
78184;DHT22;67442;44.570;18.610;2024-01-11T04:58:51;-5.10;99.90
78184;DHT22;67442;44.570;18.610;2024-01-11T05:01:18;-5.30;99.90
78184;DHT22;67442;44.570;18.610;2024-01-11T05:03:46;-5.30;99.90
78184;DHT22;67442;44.570;18.610;2024-01-11T05:06:18;-5.20;99.90
78184;DHT22;67442;44.570;18.610;2024-01-11T05:08:46;-4.90;99.90
78184;DHT22;67442;44.570;18.610;2024-01-11T05:13:44;-5.10;99.90
78184;DHT22;67442;44.570;18.610;2024-01-11T05:16:22;-4.80;99.90
78184;DHT22;67442;44.570;18.610;2024-01-11T05:18:52;-4.60;99.90
78184;DHT22;67442;44.570;18.610;2024-01-11T05:21:19;-4.50;99.90
78184;DHT22;67442;44.570;18.610;2024-01-11T05:23:50;-4.90;99.90
78184;DHT22;67442;44.570;18.610;2024-01-11T05:26:18;-5.00;99.90
78184;DHT22;67442;44.570;18.610;2024-01-11T05:28:49;-5.10;99.90
78184;DHT22;67442;44.570;18.610;2024-01-11T05:31:17;-5.20;99.90
78184;DHT22;67442;44.570;18.610;2024-01-11T05:33:44;-5.30;99.90
78184;DHT22;67442;44.570;18.610;2024-01-11T05:36:13;-5.40;99.90
78184;DHT22;67442;44.570;18.610;2024-01-11T05:38:40;-5.30;99.90
78184;DHT22;67442;44.570;18.610;2024-01-11T05:41:07;-5.20;99.90
78184;DHT22;67442;44.570;18.610;2024-01-11T05:43:34;-4.90;99.90
78184;DHT22;67442;44.570;18.610;2024-01-11T05:46:06;-5.00;99.90
78184;DHT22;67442;44.570;18.610;2024-01-11T05:48:33;-4.90;99.90
78184;DHT22;67442;44.570;18.610;2024-01-11T05:51:01;-4.90;99.90
78184;DHT22;67442;44.570;18.610;2024-01-11T05:53:28;-4.80;99.90
78184;DHT22;67442;44.570;18.610;2024-01-11T05:55:56;-5.00;99.90
78184;DHT22;67442;44.570;18.610;2024-01-11T05:58:25;-5.00;99.90
78184;DHT22;67442;44.570;18.610;2024-01-11T06:00:52;-4.70;99.90
78184;DHT22;67442;44.570;18.610;2024-01-11T06:03:22;-4.70;99.90
78184;DHT22;67442;44.570;18.610;2024-01-11T06:05:50;-5.00;99.90
78184;DHT22;67442;44.570;18.610;2024-01-11T06:08:18;-5.10;99.90
78184;DHT22;67442;44.570;18.610;2024-01-11T06:10:46;-5.00;99.90
78184;DHT22;67442;44.570;18.610;2024-01-11T06:13:18;-5.10;99.90
78184;DHT22;67442;44.570;18.610;2024-01-11T06:15:45;-5.00;99.90
78184;DHT22;67442;44.570;18.610;2024-01-11T06:18:13;-5.00;99.90
78184;DHT22;67442;44.570;18.610;2024-01-11T06:20:41;-5.00;99.90
78184;DHT22;67442;44.570;18.610;2024-01-11T06:23:07;-4.60;99.90
78184;DHT22;67442;44.570;18.610;2024-01-11T06:25:35;-4.70;99.90
78184;DHT22;67442;44.570;18.610;2024-01-11T06:28:07;-4.90;99.90
78184;DHT22;67442;44.570;18.610;2024-01-11T06:30:39;-5.10;99.90
78184;DHT22;67442;44.570;18.610;2024-01-11T06:33:12;-5.20;99.90
78184;DHT22;67442;44.570;18.610;2024-01-11T06:35:42;-5.30;99.90
78184;DHT22;67442;44.570;18.610;2024-01-11T06:38:13;-5.20;99.90
78184;DHT22;67442;44.570;18.610;2024-01-11T06:40:41;-5.50;99.90
78184;DHT22;67442;44.570;18.610;2024-01-11T06:43:12;-5.50;99.90
78184;DHT22;67442;44.570;18.610;2024-01-11T06:45:43;-5.30;99.90
78184;DHT22;67442;44.570;18.610;2024-01-11T06:48:11;-5.40;99.90
78184;DHT22;67442;44.570;18.610;2024-01-11T06:50:39;-5.60;99.90
78184;DHT22;67442;44.570;18.610;2024-01-11T06:53:07;-5.50;99.90
78184;DHT22;67442;44.570;18.610;2024-01-11T06:55:36;-5.40;99.90
78184;DHT22;67442;44.570;18.610;2024-01-11T06:58:04;-5.30;99.90
78184;DHT22;67442;44.570;18.610;2024-01-11T07:00:32;-5.10;99.90
78184;DHT22;67442;44.570;18.610;2024-01-11T07:02:59;-4.80;99.90
78184;DHT22;67442;44.570;18.610;2024-01-11T07:05:27;-4.80;99.90
78184;DHT22;67442;44.570;18.610;2024-01-11T07:07:56;-4.90;99.90
78184;DHT22;67442;44.570;18.610;2024-01-11T07:10:27;-5.00;99.90
78184;DHT22;67442;44.570;18.610;2024-01-11T07:13:05;-5.00;99.90
78184;DHT22;67442;44.570;18.610;2024-01-11T07:15:35;-4.90;99.90
78184;DHT22;67442;44.570;18.610;2024-01-11T07:18:05;-4.60;99.90
78184;DHT22;67442;44.570;18.610;2024-01-11T07:20:34;-4.40;99.90
78184;DHT22;67442;44.570;18.610;2024-01-11T07:23:02;-4.30;99.90
78184;DHT22;67442;44.570;18.610;2024-01-11T07:25:29;-4.40;99.90
78184;DHT22;67442;44.570;18.610;2024-01-11T07:27:57;-4.40;99.90
78184;DHT22;67442;44.570;18.610;2024-01-11T07:30:28;-4.30;99.90
78184;DHT22;67442;44.570;18.610;2024-01-11T07:32:56;-3.80;99.90
78184;DHT22;67442;44.570;18.610;2024-01-11T07:35:24;-3.70;99.90
78184;DHT22;67442;44.570;18.610;2024-01-11T07:37:51;-3.20;99.90
78184;DHT22;67442;44.570;18.610;2024-01-11T07:40:19;-3.00;99.90
78184;DHT22;67442;44.570;18.610;2024-01-11T07:42:46;-2.90;99.90
78184;DHT22;67442;44.570;18.610;2024-01-11T07:45:15;-2.70;99.90
78184;DHT22;67442;44.570;18.610;2024-01-11T07:47:46;-2.40;99.90
78184;DHT22;67442;44.570;18.610;2024-01-11T07:50:18;-2.10;99.90
78184;DHT22;67442;44.570;18.610;2024-01-11T07:52:46;-2.10;99.90
78184;DHT22;67442;44.570;18.610;2024-01-11T07:55:17;-2.40;99.90
78184;DHT22;67442;44.570;18.610;2024-01-11T07:57:50;-2.90;99.90
78184;DHT22;67442;44.570;18.610;2024-01-11T08:00:18;-3.00;99.90
78184;DHT22;67442;44.570;18.610;2024-01-11T08:02:46;-2.60;99.90
78184;DHT22;67442;44.570;18.610;2024-01-11T08:05:13;-2.70;99.90
78184;DHT22;67442;44.570;18.610;2024-01-11T08:07:41;-2.40;99.90
78184;DHT22;67442;44.570;18.610;2024-01-11T08:10:12;-2.50;99.90
78184;DHT22;67442;44.570;18.610;2024-01-11T08:12:39;-2.70;99.90
78184;DHT22;67442;44.570;18.610;2024-01-11T08:15:08;-2.60;99.90
78184;DHT22;67442;44.570;18.610;2024-01-11T08:17:43;-2.40;99.90
78184;DHT22;67442;44.570;18.610;2024-01-11T08:20:12;-2.60;99.90
78184;DHT22;67442;44.570;18.610;2024-01-11T08:22:44;-2.40;99.90
78184;DHT22;67442;44.570;18.610;2024-01-11T08:25:28;-2.30;99.90
78184;DHT22;67442;44.570;18.610;2024-01-11T08:27:55;-2.40;99.90
78184;DHT22;67442;44.570;18.610;2024-01-11T08:30:22;-2.70;99.90
78184;DHT22;67442;44.570;18.610;2024-01-11T08:32:50;-2.90;99.90
78184;DHT22;67442;44.570;18.610;2024-01-11T08:35:17;-3.00;99.90
78184;DHT22;67442;44.570;18.610;2024-01-11T08:37:46;-2.90;99.90
78184;DHT22;67442;44.570;18.610;2024-01-11T08:40:13;-2.50;99.90
78184;DHT22;67442;44.570;18.610;2024-01-11T08:42:42;-1.90;99.90
78184;DHT22;67442;44.570;18.610;2024-01-11T08:45:13;-1.30;99.90
78184;DHT22;67442;44.570;18.610;2024-01-11T08:47:45;-1.20;99.90
78184;DHT22;67442;44.570;18.610;2024-01-11T08:50:13;-1.30;99.90
78184;DHT22;67442;44.570;18.610;2024-01-11T08:52:40;-1.40;99.90
78184;DHT22;67442;44.570;18.610;2024-01-11T08:55:08;-1.20;99.90
78184;DHT22;67442;44.570;18.610;2024-01-11T08:57:41;-1.60;99.90
78184;DHT22;67442;44.570;18.610;2024-01-11T09:00:11;-1.90;99.90
78184;DHT22;67442;44.570;18.610;2024-01-11T09:02:47;-2.00;99.90
78184;DHT22;67442;44.570;18.610;2024-01-11T09:05:18;-2.10;99.90
78184;DHT22;67442;44.570;18.610;2024-01-11T09:07:50;-2.10;99.90
78184;DHT22;67442;44.570;18.610;2024-01-11T09:10:21;-1.30;99.90
78184;DHT22;67442;44.570;18.610;2024-01-11T09:12:49;-0.80;99.90
78184;DHT22;67442;44.570;18.610;2024-01-11T09:15:20;-0.80;99.90
78184;DHT22;67442;44.570;18.610;2024-01-11T09:17:48;-0.70;99.90
78184;DHT22;67442;44.570;18.610;2024-01-11T09:20:16;-0.20;99.70
78184;DHT22;67442;44.570;18.610;2024-01-11T09:22:45;-0.10;98.20
78184;DHT22;67442;44.570;18.610;2024-01-11T09:25:16;-0.20;98.80
78184;DHT22;67442;44.570;18.610;2024-01-11T09:27:44;-0.50;99.90
78184;DHT22;67442;44.570;18.610;2024-01-11T09:30:12;-0.40;99.90
78184;DHT22;67442;44.570;18.610;2024-01-11T09:32:40;-0.30;99.90
78184;DHT22;67442;44.570;18.610;2024-01-11T09:35:12;-0.80;99.90
78184;DHT22;67442;44.570;18.610;2024-01-11T09:37:39;-0.80;99.90
78184;DHT22;67442;44.570;18.610;2024-01-11T09:40:07;-0.60;99.90
78184;DHT22;67442;44.570;18.610;2024-01-11T09:42:38;-0.70;99.90
78184;DHT22;67442;44.570;18.610;2024-01-11T09:45:14;-0.60;99.90
78184;DHT22;67442;44.570;18.610;2024-01-11T09:47:45;-0.90;99.90
78184;DHT22;67442;44.570;18.610;2024-01-11T09:50:12;-0.80;99.90
78184;DHT22;67442;44.570;18.610;2024-01-11T09:52:47;-0.90;99.90
78184;DHT22;67442;44.570;18.610;2024-01-11T09:55:15;-0.90;99.90
78184;DHT22;67442;44.570;18.610;2024-01-11T09:57:48;-1.00;99.90
78184;DHT22;67442;44.570;18.610;2024-01-11T10:00:18;-0.90;99.90
78184;DHT22;67442;44.570;18.610;2024-01-11T10:02:47;-0.70;99.90
78184;DHT22;67442;44.570;18.610;2024-01-11T10:05:18;-0.20;99.90
78184;DHT22;67442;44.570;18.610;2024-01-11T10:07:45;-0.60;98.70
78184;DHT22;67442;44.570;18.610;2024-01-11T10:10:13;-0.40;99.30
78184;DHT22;67442;44.570;18.610;2024-01-11T10:12:43;-0.80;99.90
78184;DHT22;67442;44.570;18.610;2024-01-11T10:15:14;-0.50;99.90
78184;DHT22;67442;44.570;18.610;2024-01-11T10:17:45;-0.50;98.50
78184;DHT22;67442;44.570;18.610;2024-01-11T10:20:13;-0.90;99.70
78184;DHT22;67442;44.570;18.610;2024-01-11T10:22:44;-1.20;99.90
78184;DHT22;67442;44.570;18.610;2024-01-11T10:25:16;-0.90;99.90
78184;DHT22;67442;44.570;18.610;2024-01-11T10:27:45;-0.70;99.90
78184;DHT22;67442;44.570;18.610;2024-01-11T10:30:16;-0.60;99.90
78184;DHT22;67442;44.570;18.610;2024-01-11T10:32:44;-1.10;99.90
78184;DHT22;67442;44.570;18.610;2024-01-11T10:35:12;-1.00;99.90
78184;DHT22;67442;44.570;18.610;2024-01-11T10:37:44;-0.90;99.90
78184;DHT22;67442;44.570;18.610;2024-01-11T10:40:15;-0.20;99.60
78184;DHT22;67442;44.570;18.610;2024-01-11T10:42:45;-0.60;99.00
78184;DHT22;67442;44.570;18.610;2024-01-11T10:45:19;-0.70;99.30
78184;DHT22;67442;44.570;18.610;2024-01-11T10:50:37;0.00;98.10
78184;DHT22;67442;44.570;18.610;2024-01-11T10:56:05;-0.60;99.70
78184;DHT22;67442;44.570;18.610;2024-01-11T10:58:36;-0.50;99.30
78184;DHT22;67442;44.570;18.610;2024-01-11T11:01:06;-1.00;99.90
78184;DHT22;67442;44.570;18.610;2024-01-11T11:03:35;-1.30;99.90
78184;DHT22;67442;44.570;18.610;2024-01-11T11:06:01;-1.20;99.90
78184;DHT22;67442;44.570;18.610;2024-01-11T11:08:29;-0.70;99.90
78184;DHT22;67442;44.570;18.610;2024-01-11T11:10:59;-0.70;99.90
78184;DHT22;67442;44.570;18.610;2024-01-11T11:13:27;-0.50;99.90
78184;DHT22;67442;44.570;18.610;2024-01-11T11:15:58;-0.80;99.90
78184;DHT22;67442;44.570;18.610;2024-01-11T11:18:26;-0.90;99.90
78184;DHT22;67442;44.570;18.610;2024-01-11T11:20:53;-0.90;99.90
78184;DHT22;67442;44.570;18.610;2024-01-11T11:23:20;-0.60;99.90
78184;DHT22;67442;44.570;18.610;2024-01-11T11:25:49;-0.70;99.90
78184;DHT22;67442;44.570;18.610;2024-01-11T11:28:19;-0.70;99.90
78184;DHT22;67442;44.570;18.610;2024-01-11T11:30:49;-0.60;99.90
78184;DHT22;67442;44.570;18.610;2024-01-11T11:33:24;-0.50;99.90
78184;DHT22;67442;44.570;18.610;2024-01-11T11:35:58;-0.50;99.60
78184;DHT22;67442;44.570;18.610;2024-01-11T11:38:30;-0.10;99.40
78184;DHT22;67442;44.570;18.610;2024-01-11T11:40:58;-0.10;99.20
78184;DHT22;67442;44.570;18.610;2024-01-11T11:43:31;0.30;98.50
78184;DHT22;67442;44.570;18.610;2024-01-11T11:45:58;-0.10;98.10
78184;DHT22;67442;44.570;18.610;2024-01-11T11:51:19;-0.20;98.40
78184;DHT22;67442;44.570;18.610;2024-01-11T11:53:49;0.20;97.90
78184;DHT22;67442;44.570;18.610;2024-01-11T11:56:21;-0.10;98.50
78184;DHT22;67442;44.570;18.610;2024-01-11T11:58:53;-0.10;98.00
78184;DHT22;67442;44.570;18.610;2024-01-11T12:01:24;-0.50;98.90
78184;DHT22;67442;44.570;18.610;2024-01-11T12:03:53;-0.20;98.90
78184;DHT22;67442;44.570;18.610;2024-01-11T12:06:22;0.10;97.50
78184;DHT22;67442;44.570;18.610;2024-01-11T12:08:53;0.30;97.20
78184;DHT22;67442;44.570;18.610;2024-01-11T12:11:21;-0.10;97.10
78184;DHT22;67442;44.570;18.610;2024-01-11T12:13:49;0.00;98.20
78184;DHT22;67442;44.570;18.610;2024-01-11T12:16:17;-0.40;98.70
78184;DHT22;67442;44.570;18.610;2024-01-11T12:18:46;-0.60;99.20
78184;DHT22;67442;44.570;18.610;2024-01-11T12:21:13;-1.20;99.90
78184;DHT22;67442;44.570;18.610;2024-01-11T12:23:45;-1.70;99.90
78184;DHT22;67442;44.570;18.610;2024-01-11T12:26:15;-1.60;99.90
78184;DHT22;67442;44.570;18.610;2024-01-11T12:28:48;-0.90;99.90
78184;DHT22;67442;44.570;18.610;2024-01-11T12:31:16;-0.80;99.90
78184;DHT22;67442;44.570;18.610;2024-01-11T12:33:48;-0.60;99.90
78184;DHT22;67442;44.570;18.610;2024-01-11T12:36:16;-0.80;99.90
78184;DHT22;67442;44.570;18.610;2024-01-11T12:38:47;-1.20;99.90
78184;DHT22;67442;44.570;18.610;2024-01-11T12:41:33;-1.20;99.90
78184;DHT22;67442;44.570;18.610;2024-01-11T12:44:02;-1.40;99.90
78184;DHT22;67442;44.570;18.610;2024-01-11T12:46:30;-1.40;99.90
78184;DHT22;67442;44.570;18.610;2024-01-11T12:48:58;-1.30;99.90
78184;DHT22;67442;44.570;18.610;2024-01-11T12:51:26;-1.70;99.90
78184;DHT22;67442;44.570;18.610;2024-01-11T12:53:54;-1.60;99.90
78184;DHT22;67442;44.570;18.610;2024-01-11T12:56:28;-1.60;99.90
78184;DHT22;67442;44.570;18.610;2024-01-11T12:59:09;-1.80;99.90
78184;DHT22;67442;44.570;18.610;2024-01-11T13:01:40;-1.70;99.90
78184;DHT22;67442;44.570;18.610;2024-01-11T13:04:12;-1.40;99.90
78184;DHT22;67442;44.570;18.610;2024-01-11T13:06:40;-1.40;99.90
78184;DHT22;67442;44.570;18.610;2024-01-11T13:09:08;-1.40;99.90
78184;DHT22;67442;44.570;18.610;2024-01-11T13:11:35;-1.30;99.90
78184;DHT22;67442;44.570;18.610;2024-01-11T13:14:07;-1.10;99.90
78184;DHT22;67442;44.570;18.610;2024-01-11T13:16:40;-1.30;99.90
78184;DHT22;67442;44.570;18.610;2024-01-11T13:19:09;-1.40;99.90
78184;DHT22;67442;44.570;18.610;2024-01-11T13:21:37;-1.40;99.90
78184;DHT22;67442;44.570;18.610;2024-01-11T13:24:08;-1.50;99.90
78184;DHT22;67442;44.570;18.610;2024-01-11T13:26:36;-0.90;99.90
78184;DHT22;67442;44.570;18.610;2024-01-11T13:29:07;-0.60;99.90
78184;DHT22;67442;44.570;18.610;2024-01-11T13:31:35;-0.50;99.90
78184;DHT22;67442;44.570;18.610;2024-01-11T13:34:06;-0.30;99.90
78184;DHT22;67442;44.570;18.610;2024-01-11T13:36:37;-0.20;99.80
78184;DHT22;67442;44.570;18.610;2024-01-11T13:39:05;-0.40;99.90
78184;DHT22;67442;44.570;18.610;2024-01-11T13:41:35;-0.40;99.90
78184;DHT22;67442;44.570;18.610;2024-01-11T13:44:04;-0.90;99.90
78184;DHT22;67442;44.570;18.610;2024-01-11T13:46:33;-1.20;99.90
78184;DHT22;67442;44.570;18.610;2024-01-11T13:49:02;-1.40;99.90
78184;DHT22;67442;44.570;18.610;2024-01-11T13:51:29;-1.20;99.90
78184;DHT22;67442;44.570;18.610;2024-01-11T13:54:01;-0.90;99.90
78184;DHT22;67442;44.570;18.610;2024-01-11T13:56:29;-0.90;99.90
78184;DHT22;67442;44.570;18.610;2024-01-11T13:59:01;-1.50;99.90
78184;DHT22;67442;44.570;18.610;2024-01-11T14:01:33;-1.70;99.90
78184;DHT22;67442;44.570;18.610;2024-01-11T14:04:05;-1.90;99.90
78184;DHT22;67442;44.570;18.610;2024-01-11T14:06:36;-2.00;99.90
78184;DHT22;67442;44.570;18.610;2024-01-11T14:09:07;-2.20;99.90
78184;DHT22;67442;44.570;18.610;2024-01-11T14:11:36;-1.80;99.90
78184;DHT22;67442;44.570;18.610;2024-01-11T14:14:04;-1.40;99.90
78184;DHT22;67442;44.570;18.610;2024-01-11T14:16:32;-1.20;99.90
78184;DHT22;67442;44.570;18.610;2024-01-11T14:19:00;-1.00;99.90
78184;DHT22;67442;44.570;18.610;2024-01-11T14:21:28;-1.70;99.90
78184;DHT22;67442;44.570;18.610;2024-01-11T14:23:59;-1.80;99.90
78184;DHT22;67442;44.570;18.610;2024-01-11T14:26:26;-1.90;99.90
78184;DHT22;67442;44.570;18.610;2024-01-11T14:28:58;-2.20;99.90
78184;DHT22;67442;44.570;18.610;2024-01-11T14:31:27;-2.40;99.90
78184;DHT22;67442;44.570;18.610;2024-01-11T14:33:54;-2.50;99.90
78184;DHT22;67442;44.570;18.610;2024-01-11T14:36:25;-2.60;99.90
78184;DHT22;67442;44.570;18.610;2024-01-11T14:38:53;-2.70;99.90
78184;DHT22;67442;44.570;18.610;2024-01-11T14:41:21;-2.60;99.90
78184;DHT22;67442;44.570;18.610;2024-01-11T14:43:48;-2.40;99.90
78184;DHT22;67442;44.570;18.610;2024-01-11T14:46:20;-2.40;99.90
78184;DHT22;67442;44.570;18.610;2024-01-11T14:48:49;-2.40;99.90
78184;DHT22;67442;44.570;18.610;2024-01-11T14:51:16;-2.60;99.90
78184;DHT22;67442;44.570;18.610;2024-01-11T14:53:44;-2.20;99.90
78184;DHT22;67442;44.570;18.610;2024-01-11T14:56:12;-2.20;99.90
78184;DHT22;67442;44.570;18.610;2024-01-11T14:58:40;-2.20;99.90
78184;DHT22;67442;44.570;18.610;2024-01-11T15:01:07;-2.40;99.90
78184;DHT22;67442;44.570;18.610;2024-01-11T15:03:39;-2.60;99.90
78184;DHT22;67442;44.570;18.610;2024-01-11T15:06:07;-2.70;99.90
78184;DHT22;67442;44.570;18.610;2024-01-11T15:08:36;-2.70;99.90
78184;DHT22;67442;44.570;18.610;2024-01-11T15:11:04;-2.70;99.90
78184;DHT22;67442;44.570;18.610;2024-01-11T15:13:31;-2.40;99.90
78184;DHT22;67442;44.570;18.610;2024-01-11T15:15:58;-2.10;99.90
78184;DHT22;67442;44.570;18.610;2024-01-11T15:18:26;-2.20;99.90
78184;DHT22;67442;44.570;18.610;2024-01-11T15:20:58;-2.50;99.90
78184;DHT22;67442;44.570;18.610;2024-01-11T15:23:29;-2.50;99.90
78184;DHT22;67442;44.570;18.610;2024-01-11T15:26:00;-2.70;99.90
78184;DHT22;67442;44.570;18.610;2024-01-11T15:28:28;-2.50;99.90
78184;DHT22;67442;44.570;18.610;2024-01-11T15:30:59;-2.20;99.90
78184;DHT22;67442;44.570;18.610;2024-01-11T15:33:31;-2.00;99.90
78184;DHT22;67442;44.570;18.610;2024-01-11T15:35:59;-2.30;99.90
78184;DHT22;67442;44.570;18.610;2024-01-11T15:38:26;-2.10;99.90
78184;DHT22;67442;44.570;18.610;2024-01-11T15:40:54;-2.00;99.90